Hallock, MN

7:23 PM CDT on September 02, 2014 (GMT -0500)
Hallock Municipal | Change Station
CLOSE
Current Station
Airport
Location: Hallock,
Elevation: 820 ft
Nearby Weather Stations

Elev 820 ft 48.75 °N, 96.94 °W | Updated 10 minutes ago

Clear
Clear
63 °F
Feels Like 63 °F
N
7
Wind Variable Wind from East

Today
High -- | Low -- °F
--% Chance of Precip.
Yesterday
High -- | Low -- °F
Precip. -- in
6:46 AM 8:07 PM
First Quarter, 56% visible
Pressure 29.66 in
Visibility 10.0 miles
Clouds Clear
Dew Point 57 °F
Humidity 82%
Rainfall 0.24 in
Snow Depth Not available.
UV 0 out of 12
Pollen 10.10 out of 12
Air Quality Not available.
Flu Activity Not available.
METAR KHCO 030013Z AUTO 10006KT 10SM CLR 17/14 A2966 RMK AO2

More Conditions Fewer Conditions

Pressure 29.66 in
Visibility 10.0 miles
Clouds Clear
Dew Point 57 °F
Humidity 82%
Rainfall 0.24 in
Snow Depth Not available.
UV 0 out of 12
Pollen 10.10 out of 12
Air Quality Not available.
Flu Activity Not available.
METAR KHCO 030013Z AUTO 10006KT 10SM CLR 17/14 A2966 RMK AO2

More Conditions Fewer Conditions

10-Day Weather Forecast

Almanac

Astronomy

Sep. 02, 2014 Rise Set
Actual Time 6:46 AM CDT 8:07 PM CDT
Civil Twilight 6:13 AM CDT 8:40 PM CDT
Nautical Twilight 5:33 AM CDT 9:19 PM CDT
Astronomical Twilight 4:50 AM CDT 10:02 PM CDT
Moon 3:07 PM CDT (9/2) No Moon Set
Length of Visible Light 14h 26m
Length of Day
13h 21m
Tomorrow will be 3m 28s shorter.
First Quarter, 56% of the Moon is Illuminated
Today
First Quarter
Sep 8
Full
Sep 15
Last Quarter
Sep 24
New
Oct 1
First Quarter

Today's Extremes

State Highs State Lows

Community

WunderPhotos

Upload Photos

1,749,816 photos uploaded!

Nearby

Snow Depth

Station Depth Elevation
No new snow has been reported.

Earthquake Activity

City Distance Mag. Time & Date
No recent earthquake activity has been reported nearby.
Minimum magnitude displayed is 2.5.

Coastal Water Temperatures

Place Temperature
No Stations Reporting

Nearby Weather Stations